createdAt,value
2023-03-17T00:00:53.384Z,-1.40
2023-03-17T00:03:25.994Z,-1.40
2023-03-17T00:05:58.276Z,-1.40
2023-03-17T00:08:31.173Z,-1.40
2023-03-17T00:11:01.128Z,-1.50
2023-03-17T00:13:33.844Z,-1.50
2023-03-17T00:16:05.019Z,-1.50
2023-03-17T00:18:35.585Z,-1.50
2023-03-17T00:21:05.829Z,-1.50
2023-03-17T00:23:35.894Z,-1.50
2023-03-17T00:26:05.205Z,-1.50
2023-03-17T00:28:34.271Z,-1.70
2023-03-17T00:31:14.348Z,-1.70
2023-03-17T00:33:45.342Z,-1.70
2023-03-17T00:36:22.620Z,-1.70
2023-03-17T00:38:52.776Z,-1.80
2023-03-17T00:41:22.787Z,-1.80
2023-03-17T00:43:51.926Z,-1.80
2023-03-17T00:46:27.657Z,-1.80
2023-03-17T00:48:57.062Z,-1.90
2023-03-17T00:51:26.249Z,-1.90
2023-03-17T00:53:57.143Z,-2.00
2023-03-17T00:56:26.341Z,-2.00
2023-03-17T00:58:55.465Z,-2.00
2023-03-17T01:01:25.124Z,-2.00
2023-03-17T01:03:54.276Z,-2.00
2023-03-17T01:06:23.399Z,-2.00
2023-03-17T01:08:52.693Z,-2.00
2023-03-17T01:11:22.840Z,-2.00
2023-03-17T01:13:52.732Z,-2.10
2023-03-17T01:16:22.680Z,-2.00
2023-03-17T01:18:51.837Z,-2.00
2023-03-17T01:21:22.564Z,-2.00
2023-03-17T01:23:51.691Z,-2.00
2023-03-17T01:26:20.761Z,-2.00
2023-03-17T01:28:50.413Z,-2.00
2023-03-17T01:31:20.518Z,-2.00
2023-03-17T01:33:49.911Z,-2.10
2023-03-17T01:36:19.032Z,-2.10
2023-03-17T01:38:49.631Z,-2.20
2023-03-17T01:41:20.803Z,-2.20
2023-03-17T01:43:50.145Z,-2.20
2023-03-17T01:46:29.394Z,-2.20
2023-03-17T01:49:07.761Z,-2.20
2023-03-17T01:51:55.878Z,-2.20
2023-03-17T01:54:43.161Z,-2.30
2023-03-17T01:57:45.051Z,-2.40
2023-03-17T02:00:20.480Z,-2.40
2023-03-17T02:02:57.034Z,-2.40
2023-03-17T02:05:29.865Z,-2.50
2023-03-17T02:08:00.090Z,-2.40
2023-03-17T02:10:30.978Z,-2.40
2023-03-17T02:13:05.560Z,-2.40
2023-03-17T02:15:52.256Z,-2.50
2023-03-17T02:18:27.330Z,-2.50
2023-03-17T02:20:56.632Z,-2.60
2023-03-17T02:23:25.813Z,-2.50
2023-03-17T02:25:55.695Z,-2.50
2023-03-17T02:28:28.698Z,-2.50
2023-03-17T02:30:58.168Z,-2.50
2023-03-17T02:33:27.767Z,-2.50
2023-03-17T02:35:57.646Z,-2.50
2023-03-17T02:38:27.130Z,-2.50
2023-03-17T02:40:56.548Z,-2.40
2023-03-17T02:43:25.633Z,-2.40
2023-03-17T02:45:58.563Z,-2.40
2023-03-17T02:48:28.074Z,-2.50
2023-03-17T02:50:57.251Z,-2.50
2023-03-17T02:53:26.391Z,-2.60
2023-03-17T02:55:55.536Z,-2.50
2023-03-17T02:58:24.637Z,-2.60
2023-03-17T03:00:53.944Z,-2.60
2023-03-17T03:03:23.055Z,-2.60
2023-03-17T03:05:52.180Z,-2.60
2023-03-17T03:08:22.137Z,-2.60
2023-03-17T03:10:51.303Z,-2.70
2023-03-17T03:13:20.832Z,-2.70
2023-03-17T03:15:50.181Z,-2.70
2023-03-17T03:18:19.472Z,-2.70
2023-03-17T03:20:48.681Z,-2.60
2023-03-17T03:23:17.805Z,-2.80
2023-03-17T03:25:47.023Z,-2.80
2023-03-17T03:28:16.274Z,-2.80
2023-03-17T03:30:46.244Z,-2.80
2023-03-17T03:33:16.114Z,-2.80
2023-03-17T03:35:45.922Z,-2.90
2023-03-17T03:38:15.108Z,-2.90
2023-03-17T03:40:45.516Z,-2.90
2023-03-17T03:43:22.826Z,-2.90
2023-03-17T03:45:54.556Z,-2.90
2023-03-17T03:48:24.324Z,-3.00
2023-03-17T03:50:58.225Z,-3.00
2023-03-17T03:53:28.542Z,-3.00
2023-03-17T03:55:57.648Z,-3.00
2023-03-17T03:58:26.920Z,-2.90
2023-03-17T04:00:56.068Z,-3.00
2023-03-17T04:03:25.279Z,-2.90
2023-03-17T04:05:54.394Z,-3.00
2023-03-17T04:08:23.469Z,-3.00
2023-03-17T04:10:52.629Z,-3.10
2023-03-17T04:13:22.267Z,-3.10
2023-03-17T04:15:51.803Z,-3.10
2023-03-17T04:18:20.940Z,-3.10
2023-03-17T04:20:50.106Z,-3.10
2023-03-17T04:23:19.196Z,-3.10
2023-03-17T04:25:50.952Z,-3.10
2023-03-17T04:28:21.120Z,-3.00
2023-03-17T04:30:50.636Z,-3.00
2023-03-17T04:33:20.415Z,-3.10
2023-03-17T04:35:49.565Z,-3.20
2023-03-17T04:38:18.656Z,-3.20
2023-03-17T04:40:47.880Z,-3.20
2023-03-17T04:43:16.974Z,-3.20
2023-03-17T04:45:46.139Z,-3.20
2023-03-17T04:48:15.406Z,-3.20
2023-03-17T04:50:47.886Z,-3.20
2023-03-17T04:53:17.046Z,-3.20
2023-03-17T04:55:46.132Z,-3.20
2023-03-17T04:58:29.465Z,-3.20
2023-03-17T05:00:59.854Z,-3.20
2023-03-17T05:03:30.261Z,-3.10
2023-03-17T05:06:00.571Z,-3.10
2023-03-17T05:08:29.731Z,-3.10
2023-03-17T05:10:59.033Z,-3.10
2023-03-17T05:13:28.166Z,-3.00
2023-03-17T05:15:59.493Z,-2.90
2023-03-17T05:19:29.821Z,-2.90
2023-03-17T05:21:58.998Z,-2.80
2023-03-17T05:24:28.224Z,-2.70
2023-03-17T05:26:57.314Z,-2.70
2023-03-17T05:29:26.415Z,-2.60
2023-03-17T05:31:55.611Z,-2.50
2023-03-17T05:34:24.836Z,-2.30
2023-03-17T05:36:54.410Z,-2.20
2023-03-17T05:39:23.543Z,-2.10
2023-03-17T05:41:52.688Z,-2.00
2023-03-17T05:44:21.739Z,-1.80
2023-03-17T05:46:51.353Z,-1.60
2023-03-17T05:49:20.649Z,-1.50
2023-03-17T05:51:49.855Z,-1.50
2023-03-17T05:54:18.994Z,-1.30
2023-03-17T05:56:48.415Z,-1.20
2023-03-17T05:59:18.508Z,-1.00
2023-03-17T06:01:57.335Z,-0.90
2023-03-17T06:04:26.689Z,-0.80
2023-03-17T06:06:55.783Z,-0.60
2023-03-17T06:09:25.021Z,-0.40
2023-03-17T06:11:54.167Z,-0.30
2023-03-17T06:14:25.383Z,-0.20
2023-03-17T06:16:55.785Z,-0.10
2023-03-17T06:19:24.871Z,0.10
2023-03-17T06:21:53.969Z,0.20
2023-03-17T06:24:23.111Z,0.30
2023-03-17T06:26:52.992Z,0.50
2023-03-17T06:29:22.729Z,0.60
2023-03-17T06:31:52.411Z,0.80
2023-03-17T06:34:24.025Z,0.90
2023-03-17T06:36:54.156Z,0.90
2023-03-17T06:39:23.536Z,1.10
2023-03-17T06:41:52.652Z,1.20
2023-03-17T06:44:22.255Z,1.40
2023-03-17T06:46:51.597Z,1.50
2023-03-17T06:49:21.189Z,1.50
2023-03-17T06:51:50.558Z,1.60
2023-03-17T06:54:21.408Z,1.80
2023-03-17T06:56:50.929Z,2.00
2023-03-17T06:59:21.830Z,2.10
2023-03-17T07:01:52.088Z,2.30
2023-03-17T07:04:21.320Z,2.50
2023-03-17T07:06:51.678Z,2.50
2023-03-17T07:09:20.956Z,2.60
2023-03-17T07:11:50.085Z,2.60
2023-03-17T07:14:19.688Z,2.80
2023-03-17T07:16:50.249Z,2.90
2023-03-17T07:19:19.583Z,2.90
2023-03-17T07:21:48.781Z,2.80
2023-03-17T07:24:17.962Z,3.00
2023-03-17T07:26:47.093Z,3.00
2023-03-17T07:29:17.457Z,3.10
2023-03-17T07:31:47.149Z,3.10
2023-03-17T07:34:16.631Z,3.20
2023-03-17T07:36:45.850Z,3.40
2023-03-17T07:39:15.643Z,3.50
2023-03-17T07:41:44.740Z,3.60
2023-03-17T07:44:13.844Z,3.80
2023-03-17T07:46:43.024Z,3.90
2023-03-17T07:49:12.899Z,4.00
2023-03-17T07:51:43.371Z,4.20
2023-03-17T07:54:15.012Z,4.30
2023-03-17T07:56:44.333Z,4.40
2023-03-17T07:59:13.620Z,4.40
2023-03-17T08:01:42.795Z,4.50
2023-03-17T08:04:13.271Z,4.60
2023-03-17T08:06:42.858Z,4.80
2023-03-17T08:09:12.114Z,4.80
2023-03-17T08:11:41.257Z,4.90
2023-03-17T08:14:11.823Z,5.00
2023-03-17T08:16:41.396Z,5.20
2023-03-17T08:19:11.189Z,5.20
2023-03-17T08:21:40.350Z,5.30
2023-03-17T08:24:09.913Z,5.30
2023-03-17T08:26:39.048Z,5.40
2023-03-17T08:29:08.371Z,5.50
2023-03-17T08:31:37.577Z,5.50
2023-03-17T08:34:07.553Z,5.70
2023-03-17T08:36:36.838Z,5.80
2023-03-17T08:39:05.946Z,5.90
2023-03-17T08:41:35.227Z,6.00
2023-03-17T08:44:04.465Z,6.10
2023-03-17T08:46:33.649Z,6.20
2023-03-17T08:49:03.413Z,6.20
2023-03-17T08:51:35.230Z,6.40
2023-03-17T08:54:05.878Z,6.50
2023-03-17T08:56:35.306Z,6.60
2023-03-17T08:59:06.665Z,6.70
2023-03-17T09:01:36.505Z,6.90
2023-03-17T09:04:05.887Z,7.00
2023-03-17T09:06:35.085Z,7.10
2023-03-17T09:09:04.229Z,7.30
2023-03-17T09:11:34.003Z,7.30
2023-03-17T09:14:03.321Z,7.40
2023-03-17T09:16:34.425Z,7.50
2023-03-17T09:19:04.340Z,7.50
2023-03-17T09:21:33.476Z,7.60
2023-03-17T09:24:02.855Z,7.90
2023-03-17T09:26:32.058Z,8.10
2023-03-17T09:29:03.108Z,8.20
2023-03-17T09:31:33.918Z,8.40
2023-03-17T09:34:06.308Z,8.50
2023-03-17T09:36:35.510Z,8.40
2023-03-17T09:39:04.636Z,8.50
2023-03-17T09:41:52.597Z,8.60
2023-03-17T09:44:40.237Z,8.70
2023-03-17T09:47:27.565Z,8.80
2023-03-17T09:50:01.164Z,8.90
2023-03-17T09:52:34.535Z,9.00
2023-03-17T09:55:08.425Z,9.10
2023-03-17T09:57:39.935Z,9.10
2023-03-17T10:00:19.073Z,9.30
2023-03-17T10:02:49.217Z,9.40
2023-03-17T10:05:36.211Z,9.50
2023-03-17T10:08:30.105Z,9.50
2023-03-17T10:11:16.328Z,9.60
2023-03-17T10:13:55.814Z,9.70
2023-03-17T10:16:43.023Z,9.70
2023-03-17T10:19:37.622Z,9.70
2023-03-17T10:22:19.509Z,9.70
2023-03-17T10:24:53.178Z,9.60
2023-03-17T10:27:23.210Z,9.60
2023-03-17T10:29:52.807Z,9.60
2023-03-17T10:32:22.548Z,9.70
2023-03-17T10:34:51.945Z,9.80
2023-03-17T10:37:24.138Z,9.90
2023-03-17T10:39:57.640Z,10.10
2023-03-17T10:42:29.235Z,10.20
2023-03-17T10:45:01.930Z,10.30
2023-03-17T10:47:33.366Z,10.40
2023-03-17T10:50:05.644Z,10.50
2023-03-17T10:52:40.809Z,10.50
2023-03-17T10:55:16.364Z,10.50
2023-03-17T10:57:55.855Z,10.60
2023-03-17T11:00:28.861Z,10.70
2023-03-17T11:02:59.711Z,10.80
2023-03-17T11:05:30.200Z,10.90
2023-03-17T11:08:15.063Z,10.90
2023-03-17T11:10:45.038Z,10.90
2023-03-17T11:13:17.458Z,11.00
2023-03-17T11:15:52.591Z,11.00
2023-03-17T11:18:39.763Z,10.90
2023-03-17T11:21:10.334Z,11.00
2023-03-17T11:23:42.546Z,11.00
2023-03-17T11:26:17.602Z,11.00
2023-03-17T11:29:19.783Z,11.00
2023-03-17T11:32:01.805Z,11.10
2023-03-17T11:35:01.386Z,11.00
2023-03-17T11:37:58.663Z,11.00
2023-03-17T11:40:46.481Z,11.20
2023-03-17T11:43:36.951Z,11.30
2023-03-17T11:46:11.302Z,11.40
2023-03-17T11:48:46.051Z,11.50
2023-03-17T11:51:41.536Z,11.50
2023-03-17T11:54:32.620Z,11.60
2023-03-17T11:57:05.944Z,11.60
2023-03-17T11:59:47.028Z,11.50
2023-03-17T12:02:28.680Z,11.40
2023-03-17T12:05:06.375Z,11.40
2023-03-17T12:07:59.345Z,11.50
2023-03-17T12:10:36.448Z,11.60
2023-03-17T12:13:18.005Z,11.70
2023-03-17T12:16:25.799Z,11.90
2023-03-17T12:19:03.505Z,12.10
2023-03-17T12:21:54.332Z,12.40
2023-03-17T12:24:28.812Z,12.60
2023-03-17T12:27:11.758Z,12.60
2023-03-17T12:29:51.895Z,12.80
2023-03-17T12:32:39.511Z,12.90
2023-03-17T12:35:31.470Z,12.90
2023-03-17T12:38:06.871Z,13.10
2023-03-17T12:40:47.426Z,13.30
2023-03-17T12:43:52.007Z,13.30
2023-03-17T12:46:43.405Z,13.30
2023-03-17T12:49:37.078Z,13.30
2023-03-17T12:52:34.240Z,13.30
2023-03-17T12:55:09.698Z,13.30
2023-03-17T12:57:41.971Z,13.40
2023-03-17T13:01:10.256Z,13.40
2023-03-17T13:03:57.505Z,13.40
2023-03-17T13:06:30.503Z,13.50
2023-03-17T13:09:33.247Z,13.60
2023-03-17T13:12:05.736Z,13.60
2023-03-17T13:14:41.160Z,13.70
2023-03-17T13:17:16.887Z,13.60
2023-03-17T13:20:08.857Z,13.50
2023-03-17T13:22:41.304Z,13.30
2023-03-17T13:25:33.598Z,13.20
2023-03-17T13:28:12.064Z,13.30
2023-03-17T13:30:56.090Z,13.60
2023-03-17T13:33:31.139Z,14.10
2023-03-17T13:36:00.649Z,15.90
2023-03-17T13:38:38.774Z,18.70
2023-03-17T13:41:35.734Z,21.20
2023-03-17T13:44:20.006Z,23.60
2023-03-17T13:46:49.453Z,25.70
2023-03-17T13:49:26.770Z,27.40
2023-03-17T13:52:12.485Z,29.10
2023-03-17T13:54:49.066Z,29.90
2023-03-17T13:57:38.246Z,30.30
2023-03-17T14:00:07.328Z,29.70
2023-03-17T14:02:39.585Z,30.30
2023-03-17T14:05:23.247Z,30.40
2023-03-17T14:07:57.248Z,28.80
2023-03-17T14:10:29.157Z,24.90
2023-03-17T14:13:03.869Z,22.20
2023-03-17T14:15:42.166Z,20.20
2023-03-17T14:18:30.750Z,18.80
2023-03-17T14:21:02.737Z,17.60
2023-03-17T14:23:33.545Z,16.70
2023-03-17T14:26:07.813Z,16.20
2023-03-17T14:28:37.868Z,15.60
2023-03-17T14:31:08.192Z,15.20
2023-03-17T14:33:39.824Z,14.80
2023-03-17T14:36:14.344Z,14.50
2023-03-17T14:38:50.069Z,14.30
2023-03-17T14:41:27.140Z,14.10
2023-03-17T14:44:00.501Z,13.80
2023-03-17T14:46:38.629Z,13.60
2023-03-17T14:49:19.856Z,13.50
2023-03-17T14:51:51.349Z,13.30
2023-03-17T14:54:23.544Z,13.00
2023-03-17T14:57:01.934Z,12.90
2023-03-17T14:59:41.464Z,12.80
2023-03-17T15:02:16.530Z,12.70
2023-03-17T15:04:58.227Z,12.50
2023-03-17T15:07:39.979Z,12.30
2023-03-17T15:10:31.059Z,12.20
2023-03-17T15:13:02.398Z,12.10
2023-03-17T15:15:34.372Z,12.00
2023-03-17T15:18:10.878Z,11.90
2023-03-17T15:20:43.143Z,11.80
2023-03-17T15:23:19.718Z,11.70
2023-03-17T15:25:55.697Z,11.60
2023-03-17T15:28:26.781Z,11.50
2023-03-17T15:31:05.898Z,11.40
2023-03-17T15:33:38.345Z,11.30
2023-03-17T15:36:25.454Z,11.30
2023-03-17T15:39:02.408Z,11.20
2023-03-17T15:41:31.522Z,11.10
2023-03-17T15:44:00.606Z,11.00
2023-03-17T15:46:33.540Z,10.90
2023-03-17T15:49:09.499Z,10.90
2023-03-17T15:51:38.879Z,10.80
2023-03-17T15:54:13.582Z,10.70
2023-03-17T15:56:43.361Z,10.70
2023-03-17T15:59:12.846Z,10.70
2023-03-17T16:01:42.038Z,10.60
2023-03-17T16:04:11.343Z,10.50
2023-03-17T16:06:40.507Z,10.50
2023-03-17T16:09:16.404Z,10.30
2023-03-17T16:11:45.550Z,10.20
2023-03-17T16:14:14.627Z,10.10
2023-03-17T16:16:45.857Z,10.00
2023-03-17T16:19:20.243Z,9.90
2023-03-17T16:21:49.470Z,9.80
2023-03-17T16:24:24.084Z,9.60
2023-03-17T16:26:53.731Z,9.50
2023-03-17T16:29:22.839Z,9.40
2023-03-17T16:31:52.169Z,9.30
2023-03-17T16:34:23.945Z,9.20
2023-03-17T16:36:54.633Z,9.10
2023-03-17T16:39:24.003Z,9.10
2023-03-17T16:41:53.591Z,9.00
2023-03-17T16:44:23.525Z,9.00
2023-03-17T16:46:52.723Z,8.80
2023-03-17T16:49:22.991Z,8.70
2023-03-17T16:51:52.474Z,8.50
2023-03-17T16:54:21.570Z,8.40
2023-03-17T16:56:50.762Z,8.40
2023-03-17T16:59:21.549Z,8.30
2023-03-17T17:01:50.999Z,8.20
2023-03-17T17:04:20.267Z,8.10
2023-03-17T17:06:50.048Z,8.00
2023-03-17T17:09:19.222Z,8.00
2023-03-17T17:11:48.360Z,7.90
2023-03-17T17:14:17.465Z,7.80
2023-03-17T17:16:46.931Z,7.70
2023-03-17T17:19:17.079Z,7.70
2023-03-17T17:21:46.349Z,7.70
2023-03-17T17:24:16.193Z,7.60
2023-03-17T17:26:45.377Z,7.60
2023-03-17T17:29:14.613Z,7.50
2023-03-17T17:31:44.002Z,7.40
2023-03-17T17:34:13.253Z,7.30
2023-03-17T17:36:42.506Z,7.10
2023-03-17T17:39:11.888Z,7.00
2023-03-17T17:41:41.055Z,6.80
2023-03-17T17:44:10.273Z,6.70
2023-03-17T17:46:39.414Z,6.50
2023-03-17T17:49:10.692Z,6.40
2023-03-17T17:51:40.019Z,6.40
2023-03-17T17:54:10.284Z,6.30
2023-03-17T17:56:40.391Z,6.30
2023-03-17T17:59:09.871Z,6.20
2023-03-17T18:01:39.594Z,6.20
2023-03-17T18:04:09.745Z,6.20
2023-03-17T18:06:39.251Z,6.20
2023-03-17T18:09:08.565Z,6.00
2023-03-17T18:11:40.311Z,5.80
2023-03-17T18:14:10.206Z,5.60
2023-03-17T18:16:40.153Z,5.40
2023-03-17T18:19:12.652Z,5.30
2023-03-17T18:21:42.096Z,5.20
2023-03-17T18:24:11.303Z,5.10
2023-03-17T18:26:41.651Z,5.00
2023-03-17T18:29:12.224Z,5.00
2023-03-17T18:31:44.937Z,4.90
2023-03-17T18:34:22.732Z,4.80
2023-03-17T18:36:52.841Z,4.80
2023-03-17T18:39:21.927Z,4.70
2023-03-17T18:41:51.164Z,4.60
2023-03-17T18:44:22.141Z,4.50
2023-03-17T18:46:51.352Z,4.40
2023-03-17T18:49:20.660Z,4.30
2023-03-17T18:51:49.767Z,4.20
2023-03-17T18:54:20.481Z,4.10
2023-03-17T18:56:49.661Z,4.10
2023-03-17T18:59:18.714Z,4.10
2023-03-17T19:01:47.806Z,4.00
2023-03-17T19:04:16.909Z,3.90
2023-03-17T19:06:46.590Z,3.70
2023-03-17T19:09:15.736Z,3.70
2023-03-17T19:11:44.870Z,3.60
2023-03-17T19:14:14.138Z,3.50
2023-03-17T19:16:43.273Z,3.40
2023-03-17T19:19:12.428Z,3.40
2023-03-17T19:21:41.955Z,3.30
2023-03-17T19:24:12.303Z,3.30
2023-03-17T19:26:41.553Z,3.20
2023-03-17T19:29:10.897Z,3.20
2023-03-17T19:31:41.661Z,3.20
2023-03-17T19:34:12.967Z,3.10
2023-03-17T19:36:45.871Z,3.00
2023-03-17T19:39:15.454Z,3.00
2023-03-17T19:41:44.743Z,2.90
2023-03-17T19:44:14.451Z,2.90
2023-03-17T19:46:43.551Z,2.80
2023-03-17T19:49:12.690Z,2.80
2023-03-17T19:51:42.184Z,2.70
2023-03-17T19:54:11.274Z,2.70
2023-03-17T19:56:40.516Z,2.60
2023-03-17T19:59:09.644Z,2.50
2023-03-17T20:01:38.858Z,2.50
2023-03-17T20:04:09.842Z,2.60
2023-03-17T20:06:39.052Z,2.50
2023-03-17T20:09:09.017Z,2.50
2023-03-17T20:11:38.480Z,2.40
2023-03-17T20:14:08.055Z,2.40
2023-03-17T20:16:37.208Z,2.30
2023-03-17T20:19:06.659Z,2.30
2023-03-17T20:21:35.954Z,2.20
2023-03-17T20:24:05.668Z,2.10
2023-03-17T20:26:35.080Z,2.10
2023-03-17T20:29:04.270Z,2.00
2023-03-17T20:31:33.940Z,1.90
2023-03-17T20:34:03.253Z,1.90
2023-03-17T20:36:32.346Z,1.80
2023-03-17T20:39:01.472Z,1.80
2023-03-17T20:41:31.000Z,1.80
2023-03-17T20:44:00.316Z,1.80
2023-03-17T20:46:29.453Z,1.80
2023-03-17T20:48:59.369Z,1.70
2023-03-17T20:51:28.447Z,1.70
2023-03-17T20:53:57.987Z,1.70
2023-03-17T20:56:29.745Z,1.70
2023-03-17T20:59:01.250Z,1.60
2023-03-17T21:01:36.324Z,1.60
2023-03-17T21:04:08.660Z,1.60
2023-03-17T21:06:38.595Z,1.50
2023-03-17T21:09:09.484Z,1.50
2023-03-17T21:11:38.725Z,1.40
2023-03-17T21:14:08.481Z,1.30
2023-03-17T21:16:37.916Z,1.30
2023-03-17T21:19:09.688Z,1.20
2023-03-17T21:21:40.056Z,1.20
2023-03-17T21:24:23.745Z,1.10
2023-03-17T21:26:53.011Z,1.10
2023-03-17T21:29:22.840Z,1.10
2023-03-17T21:31:52.648Z,1.00
2023-03-17T21:34:21.860Z,1.00
2023-03-17T21:36:51.817Z,0.90
2023-03-17T21:39:21.175Z,1.00
2023-03-17T21:41:50.986Z,0.90
2023-03-17T21:44:20.309Z,0.90
2023-03-17T21:46:49.884Z,0.80
2023-03-17T21:49:19.187Z,0.80
2023-03-17T21:51:48.330Z,0.80
2023-03-17T21:54:18.141Z,0.70
2023-03-17T21:56:49.447Z,0.70
2023-03-17T21:59:18.923Z,0.70
2023-03-17T22:01:52.088Z,0.70
2023-03-17T22:04:21.291Z,0.70
2023-03-17T22:06:51.871Z,0.60
2023-03-17T22:09:21.889Z,0.60
2023-03-17T22:11:50.993Z,0.60
2023-03-17T22:14:20.831Z,0.60
2023-03-17T22:16:50.207Z,0.60
2023-03-17T22:19:21.232Z,0.60
2023-03-17T22:21:50.630Z,0.60
2023-03-17T22:24:19.814Z,0.50
2023-03-17T22:26:49.228Z,0.50
2023-03-17T22:29:18.911Z,0.50
2023-03-17T22:31:48.123Z,0.40
2023-03-17T22:34:17.412Z,0.50
2023-03-17T22:36:46.513Z,0.40
2023-03-17T22:39:16.148Z,0.40
2023-03-17T22:41:45.221Z,0.30
2023-03-17T22:44:14.441Z,0.40
2023-03-17T22:46:43.505Z,0.30
2023-03-17T22:49:12.971Z,0.30
2023-03-17T22:51:42.767Z,0.30
2023-03-17T22:54:12.764Z,0.30
2023-03-17T22:56:41.942Z,0.30
2023-03-17T22:59:11.540Z,0.20
2023-03-17T23:01:40.944Z,0.30
2023-03-17T23:04:10.221Z,0.20
2023-03-17T23:06:39.313Z,0.20
2023-03-17T23:09:09.494Z,0.20
2023-03-17T23:11:38.533Z,0.20
2023-03-17T23:14:07.757Z,0.30
2023-03-17T23:16:37.837Z,0.20
2023-03-17T23:19:06.968Z,0.20
2023-03-17T23:21:38.767Z,0.10
2023-03-17T23:24:08.757Z,0.10
2023-03-17T23:26:37.942Z,0.10
2023-03-17T23:29:09.247Z,0.10
2023-03-17T23:31:39.664Z,0.10
2023-03-17T23:34:09.171Z,0.10
2023-03-17T23:36:41.020Z,0.00
2023-03-17T23:39:10.188Z,-0.10
2023-03-17T23:41:39.325Z,0.00
2023-03-17T23:44:10.206Z,0.00
2023-03-17T23:46:40.252Z,0.00
2023-03-17T23:49:09.330Z,0.00
2023-03-17T23:51:39.192Z,0.00
2023-03-17T23:54:10.180Z,0.00
2023-03-17T23:56:39.562Z,0.00
2023-03-17T23:59:10.741Z,0.00
